Terminal Aerodrome Forecast
Issued by NWS

Home | Current Version | Previous Version | Text Only | Print | Product List | Glossary On
Versions: 1 2 3 4 5 6 7 8 9 10 11 12 13 14 15 16 17 18
000
FTUS44 KLUB 051801 AAA
TAFCDS
TAF AMD
KCDS 051801Z 0518/0618 15015KT 6SM -RA BR BKN008 OVC030
     FM051900 15016G20KT P6SM BKN035 BKN100
      TEMPO 0523/0603 3SM TSRA OVC020CB
     FM060600 17013KT P6SM SCT020 BKN150=

USA.gov is the U.S. government's official web portal to all federal, state and local government web resources and services.